Weather at Częstochowa-Rudniki Airport

Public forecast

Using degrees Celsius for public forecast. Weather courtesy of forecast.io.

Closest aviation weather report (METAR) to Częstochowa-Rudniki Airport

Closest report is Katowice Wojciech Korfanty International Airport, 25.0 nm (46.2 km) S.

2024/05/22 04:00 (retrieved 28 minutes ago)

EPKT 220400Z 10003KT 070V150 CAVOK 17/13 Q1008

Closest aviation forecast (TAF) to Częstochowa-Rudniki Airport

Forecast is more than 12 hours old.

Closest forecast is Sliač Airport, 134.9 nm (249.9 km) S.

2024/05/21 06:30 (retrieved 22 hours ago)

TAF TAF LZSL 210430Z 2106/2118 VRB03KT 9999 BKN040 BECMG 2110/2112 14012KT